createdAt,value
2023-01-27T08:56:43.222Z,3.70
2023-01-27T09:01:01.654Z,3.90
2023-01-27T09:05:18.723Z,4.00
2023-01-27T09:14:18.047Z,4.30
2023-01-27T09:18:31.335Z,4.50
2023-01-27T10:02:13.555Z,6.00
2023-01-27T12:09:05.609Z,7.40
2023-01-27T12:13:21.058Z,7.50
2023-01-27T12:17:48.031Z,7.50
2023-01-27T12:22:01.927Z,7.60
2023-01-27T12:26:16.435Z,7.60
2023-01-27T12:30:30.049Z,7.90
2023-01-27T12:34:41.589Z,8.20
2023-01-27T12:38:59.472Z,8.30
2023-01-27T12:43:16.134Z,8.20
2023-01-27T12:47:28.811Z,8.00
2023-01-27T12:51:42.290Z,7.90
2023-01-27T12:56:11.431Z,7.90
2023-01-27T13:00:21.212Z,8.10
2023-01-27T13:04:32.090Z,8.10
2023-01-27T13:08:53.448Z,8.10
2023-01-27T13:19:04.491Z,7.80
2023-01-27T13:24:13.151Z,8.00
2023-01-27T13:28:39.709Z,7.90
2023-01-27T13:33:16.431Z,7.90
2023-01-27T13:38:20.524Z,7.90
2023-01-27T13:42:59.794Z,7.70
2023-01-27T13:47:25.061Z,7.60
2023-01-27T13:51:38.661Z,7.70
2023-01-27T13:56:20.372Z,7.90
2023-01-27T14:00:53.087Z,8.10
2023-01-27T14:06:13.468Z,8.20
2023-01-27T14:11:06.930Z,8.00
2023-01-27T14:15:30.327Z,7.90
2023-01-27T14:25:00.441Z,7.60
2023-01-27T14:29:58.109Z,7.70
2023-01-27T14:34:38.850Z,8.10
2023-01-27T15:09:55.598Z,8.60
2023-01-27T15:14:59.169Z,8.40
2023-01-27T15:25:20.276Z,7.80
2023-01-27T15:29:32.230Z,7.80
2023-01-27T15:33:52.308Z,7.80
2023-01-27T15:38:25.872Z,7.80
2023-01-27T15:53:11.919Z,7.90
2023-01-27T15:58:12.484Z,7.90
2023-01-27T17:06:24.655Z,6.60
2023-01-27T17:20:41.237Z,6.40
2023-01-27T17:24:55.020Z,6.40
2023-01-27T17:29:05.679Z,6.30
2023-01-27T17:49:04.131Z,6.10
2023-01-27T22:29:24.816Z,2.70
2023-01-27T22:33:37.435Z,2.60
2023-01-27T22:37:54.711Z,2.60
2023-01-27T22:47:09.271Z,2.40
2023-01-27T22:51:20.820Z,2.20
2023-01-27T22:55:31.442Z,2.20
2023-01-27T22:59:44.822Z,2.20
2023-01-27T23:03:59.346Z,2.20
2023-01-27T23:08:09.411Z,2.10
2023-01-27T23:12:20.393Z,2.00
2023-01-27T23:16:31.109Z,2.00
2023-01-27T23:20:44.306Z,2.10
2023-01-27T23:24:55.440Z,2.10
2023-01-27T23:29:19.365Z,1.90
2023-01-27T23:33:37.155Z,1.80
2023-01-27T23:37:49.613Z,1.90
2023-01-27T23:42:02.432Z,1.90
2023-01-27T23:46:16.410Z,1.90
2023-01-27T23:50:28.355Z,1.80
2023-01-27T23:54:41.276Z,1.70
2023-01-27T23:58:53.552Z,1.80
